sensor_id;sensor_type;location;lat;lon;timestamp;pressure;altitude;pressure_sealevel;temperature;humidity
43838;BME280;29493;46.516;6.638;2022-12-07T00:01:27;95860.09;;;23.19;50.84
43838;BME280;29493;46.516;6.638;2022-12-07T00:03:54;95856.53;;;23.18;50.81
43838;BME280;29493;46.516;6.638;2022-12-07T00:06:22;95858.59;;;23.18;50.89
43838;BME280;29493;46.516;6.638;2022-12-07T00:08:49;95860.88;;;23.12;50.97
43838;BME280;29493;46.516;6.638;2022-12-07T00:11:19;95865.34;;;23.15;50.79
43838;BME280;29493;46.516;6.638;2022-12-07T00:13:47;95855.25;;;23.12;50.80
43838;BME280;29493;46.516;6.638;2022-12-07T00:16:17;95867.41;;;23.14;50.93
43838;BME280;29493;46.516;6.638;2022-12-07T00:18:44;95859.41;;;23.11;50.89
43838;BME280;29493;46.516;6.638;2022-12-07T00:21:12;95865.00;;;23.11;50.99
43838;BME280;29493;46.516;6.638;2022-12-07T00:23:40;95864.44;;;23.12;50.86
43838;BME280;29493;46.516;6.638;2022-12-07T00:26:07;95864.44;;;23.12;50.96
43838;BME280;29493;46.516;6.638;2022-12-07T00:28:34;95865.19;;;23.13;50.95
43838;BME280;29493;46.516;6.638;2022-12-07T00:31:06;95868.00;;;23.13;51.06
43838;BME280;29493;46.516;6.638;2022-12-07T00:33:33;95866.50;;;23.12;50.95
43838;BME280;29493;46.516;6.638;2022-12-07T00:35:59;95859.56;;;23.13;51.11
43838;BME280;29493;46.516;6.638;2022-12-07T00:38:28;95867.41;;;23.14;51.05
43838;BME280;29493;46.516;6.638;2022-12-07T00:40:59;95859.41;;;23.11;51.04
43838;BME280;29493;46.516;6.638;2022-12-07T00:43:25;95854.69;;;23.13;51.21
43838;BME280;29493;46.516;6.638;2022-12-07T00:45:51;95850.41;;;23.12;51.19
43838;BME280;29493;46.516;6.638;2022-12-07T00:48:17;95851.72;;;23.11;51.12
43838;BME280;29493;46.516;6.638;2022-12-07T00:50:43;95843.28;;;23.11;51.08
43838;BME280;29493;46.516;6.638;2022-12-07T00:53:09;95850.41;;;23.12;50.83
43838;BME280;29493;46.516;6.638;2022-12-07T00:55:35;95849.66;;;23.12;50.90
43838;BME280;29493;46.516;6.638;2022-12-07T00:58:02;95849.88;;;23.06;51.04
43838;BME280;29493;46.516;6.638;2022-12-07T01:00:28;95851.94;;;23.06;50.91
43838;BME280;29493;46.516;6.638;2022-12-07T01:02:54;95842.75;;;23.05;50.97
43838;BME280;29493;46.516;6.638;2022-12-07T01:05:19;95842.19;;;23.07;50.86
43838;BME280;29493;46.516;6.638;2022-12-07T01:07:45;95839.22;;;23.05;50.85
43838;BME280;29493;46.516;6.638;2022-12-07T01:10:12;95838.28;;;23.02;50.85
43838;BME280;29493;46.516;6.638;2022-12-07T01:12:38;95839.22;;;23.05;50.86
43838;BME280;29493;46.516;6.638;2022-12-07T01:15:05;95840.34;;;23.02;50.96
43838;BME280;29493;46.516;6.638;2022-12-07T01:17:31;95848.97;;;23.04;50.87
43838;BME280;29493;46.516;6.638;2022-12-07T01:19:57;95849.69;;;23.04;51.12
43838;BME280;29493;46.516;6.638;2022-12-07T01:22:22;95841.84;;;23.03;50.89
43838;BME280;29493;46.516;6.638;2022-12-07T01:24:48;95847.13;;;22.99;50.83
43838;BME280;29493;46.516;6.638;2022-12-07T01:27:14;95853.31;;;22.97;50.98
43838;BME280;29493;46.516;6.638;2022-12-07T01:29:40;95852.91;;;23.01;50.90
43838;BME280;29493;46.516;6.638;2022-12-07T01:32:06;95853.66;;;23.01;50.67
43838;BME280;29493;46.516;6.638;2022-12-07T01:34:32;95851.59;;;23.02;50.80
43838;BME280;29493;46.516;6.638;2022-12-07T01:36:58;95850.84;;;23.01;50.81
43838;BME280;29493;46.516;6.638;2022-12-07T01:39:24;95843.75;;;23.00;50.86
43838;BME280;29493;46.516;6.638;2022-12-07T01:41:50;95849.75;;;22.97;50.78
43838;BME280;29493;46.516;6.638;2022-12-07T01:44:21;95853.34;;;22.89;51.02
43838;BME280;29493;46.516;6.638;2022-12-07T01:49:36;95851.41;;;23.00;50.58
43838;BME280;29493;46.516;6.638;2022-12-07T01:54:32;95856.50;;;22.93;50.70
43838;BME280;29493;46.516;6.638;2022-12-07T01:56:59;95851.09;;;22.88;50.79
43838;BME280;29493;46.516;6.638;2022-12-07T01:59:25;95855.22;;;22.87;51.02
43838;BME280;29493;46.516;6.638;2022-12-07T02:01:53;95855.59;;;22.91;50.67
43838;BME280;29493;46.516;6.638;2022-12-07T02:04:19;95860.84;;;22.87;50.89
43838;BME280;29493;46.516;6.638;2022-12-07T02:06:46;95852.03;;;22.90;50.60
43838;BME280;29493;46.516;6.638;2022-12-07T02:09:12;95848.28;;;22.88;50.88
43838;BME280;29493;46.516;6.638;2022-12-07T02:11:39;95857.28;;;22.86;50.70
43838;BME280;29493;46.516;6.638;2022-12-07T02:14:05;95859.16;;;22.84;50.72
43838;BME280;29493;46.516;6.638;2022-12-07T02:22:47;95856.75;;;22.80;50.95
43838;BME280;29493;46.516;6.638;2022-12-07T02:30:42;95858.44;;;22.76;50.96
43838;BME280;29493;46.516;6.638;2022-12-07T02:33:16;95848.69;;;22.77;50.91
43838;BME280;29493;46.516;6.638;2022-12-07T02:35:48;95850.59;;;22.74;50.91
43838;BME280;29493;46.516;6.638;2022-12-07T02:41:24;95856.56;;;22.78;50.75
43838;BME280;29493;46.516;6.638;2022-12-07T02:43:57;95855.81;;;22.78;50.56
43838;BME280;29493;46.516;6.638;2022-12-07T02:46:43;95855.81;;;22.78;50.74
43838;BME280;29493;46.516;6.638;2022-12-07T02:49:10;95847.44;;;22.70;50.66
43838;BME280;29493;46.516;6.638;2022-12-07T02:51:41;95852.81;;;22.83;50.42
43838;BME280;29493;46.516;6.638;2022-12-07T02:54:16;95852.63;;;22.81;50.16
43838;BME280;29493;46.516;6.638;2022-12-07T02:56:48;95846.63;;;22.85;50.32
43838;BME280;29493;46.516;6.638;2022-12-07T03:02:16;95845.88;;;22.84;50.27
43838;BME280;29493;46.516;6.638;2022-12-07T03:08:06;95846.28;;;22.81;50.13
43838;BME280;29493;46.516;6.638;2022-12-07T03:16:08;95840.66;;;22.81;50.36
43838;BME280;29493;46.516;6.638;2022-12-07T03:18:38;95841.41;;;22.74;50.60
43838;BME280;29493;46.516;6.638;2022-12-07T03:21:13;95837.53;;;22.69;50.68
43838;BME280;29493;46.516;6.638;2022-12-07T03:23:42;95834.72;;;22.69;50.62
43838;BME280;29493;46.516;6.638;2022-12-07T03:26:12;95841.63;;;22.68;50.69
43838;BME280;29493;46.516;6.638;2022-12-07T03:28:44;95842.16;;;22.74;50.45
43838;BME280;29493;46.516;6.638;2022-12-07T03:31:13;95844.06;;;22.72;50.17
43838;BME280;29493;46.516;6.638;2022-12-07T03:33:48;95838.44;;;22.72;50.60
43838;BME280;29493;46.516;6.638;2022-12-07T03:36:27;95838.44;;;22.72;50.56
43838;BME280;29493;46.516;6.638;2022-12-07T03:39:16;95838.44;;;22.72;50.29
43838;BME280;29493;46.516;6.638;2022-12-07T03:41:45;95842.72;;;22.73;50.59
43838;BME280;29493;46.516;6.638;2022-12-07T03:44:12;95842.00;;;22.72;50.48
43838;BME280;29493;46.516;6.638;2022-12-07T03:46:46;95840.69;;;22.73;50.39
43838;BME280;29493;46.516;6.638;2022-12-07T03:52:00;95834.88;;;22.71;50.50
43838;BME280;29493;46.516;6.638;2022-12-07T03:54:38;95835.63;;;22.72;50.32
43838;BME280;29493;46.516;6.638;2022-12-07T03:57:07;95824.78;;;22.68;50.76
43838;BME280;29493;46.516;6.638;2022-12-07T03:59:33;95822.56;;;22.67;50.55
43838;BME280;29493;46.516;6.638;2022-12-07T04:02:04;95818.03;;;22.71;50.27
43838;BME280;29493;46.516;6.638;2022-12-07T04:04:30;95822.34;;;22.72;50.32
43838;BME280;29493;46.516;6.638;2022-12-07T04:06:56;95811.50;;;22.69;50.34
43838;BME280;29493;46.516;6.638;2022-12-07T04:09:22;95816.38;;;22.68;50.22
43838;BME280;29493;46.516;6.638;2022-12-07T04:11:48;95822.75;;;22.69;50.22
43838;BME280;29493;46.516;6.638;2022-12-07T04:14:14;95818.25;;;22.66;50.24
43838;BME280;29493;46.516;6.638;2022-12-07T04:16:55;95812.06;;;22.67;50.51
43838;BME280;29493;46.516;6.638;2022-12-07T04:19:26;95813.41;;;22.66;50.15
43838;BME280;29493;46.516;6.638;2022-12-07T04:21:52;95818.84;;;22.64;50.39
43838;BME280;29493;46.516;6.638;2022-12-07T04:24:18;95819.59;;;22.65;50.32
43838;BME280;29493;46.516;6.638;2022-12-07T04:26:45;95814.88;;;22.67;50.30
43838;BME280;29493;46.516;6.638;2022-12-07T04:29:11;95821.47;;;22.62;50.28
43838;BME280;29493;46.516;6.638;2022-12-07T04:31:37;95814.88;;;22.67;50.16
43838;BME280;29493;46.516;6.638;2022-12-07T04:34:04;95820.09;;;22.71;50.19
43838;BME280;29493;46.516;6.638;2022-12-07T04:36:30;95812.06;;;22.67;50.00
43838;BME280;29493;46.516;6.638;2022-12-07T04:38:56;95814.31;;;22.69;50.16
43838;BME280;29493;46.516;6.638;2022-12-07T04:41:23;95815.06;;;22.69;50.13
43838;BME280;29493;46.516;6.638;2022-12-07T04:43:54;95810.63;;;22.58;50.22
43838;BME280;29493;46.516;6.638;2022-12-07T04:46:20;95813.97;;;22.65;50.11
43838;BME280;29493;46.516;6.638;2022-12-07T04:48:46;95817.69;;;22.67;50.11
43838;BME280;29493;46.516;6.638;2022-12-07T04:51:12;95813.75;;;22.70;49.94
43838;BME280;29493;46.516;6.638;2022-12-07T04:53:38;95815.22;;;22.71;50.16
43838;BME280;29493;46.516;6.638;2022-12-07T04:56:04;95820.84;;;22.71;49.94
43838;BME280;29493;46.516;6.638;2022-12-07T04:58:29;95816.56;;;22.70;50.03
43838;BME280;29493;46.516;6.638;2022-12-07T05:00:55;95813.56;;;22.68;50.03
43838;BME280;29493;46.516;6.638;2022-12-07T05:03:21;95805.31;;;22.70;50.02
43838;BME280;29493;46.516;6.638;2022-12-07T05:05:46;95814.50;;;22.71;50.07
43838;BME280;29493;46.516;6.638;2022-12-07T05:08:12;95810.75;;;22.68;49.99
43838;BME280;29493;46.516;6.638;2022-12-07T05:10:38;95811.72;;;22.63;50.14
43838;BME280;29493;46.516;6.638;2022-12-07T05:13:03;95809.84;;;22.66;50.17
43838;BME280;29493;46.516;6.638;2022-12-07T05:15:29;95807.78;;;22.66;50.20
43838;BME280;29493;46.516;6.638;2022-12-07T05:17:55;95809.09;;;22.65;50.11
43838;BME280;29493;46.516;6.638;2022-12-07T05:20:20;95814.88;;;22.67;49.85
43838;BME280;29493;46.516;6.638;2022-12-07T05:22:46;95812.66;;;22.66;50.11
43838;BME280;29493;46.516;6.638;2022-12-07T05:25:13;95808.53;;;22.67;49.90
43838;BME280;29493;46.516;6.638;2022-12-07T05:27:38;95813.41;;;22.66;50.02
43838;BME280;29493;46.516;6.638;2022-12-07T05:30:05;95810.41;;;22.64;50.08
43838;BME280;29493;46.516;6.638;2022-12-07T05:32:30;95804.81;;;22.64;50.14
43838;BME280;29493;46.516;6.638;2022-12-07T05:34:56;95799.19;;;22.64;50.10
43838;BME280;29493;46.516;6.638;2022-12-07T05:37:22;95796.94;;;22.62;50.02
43838;BME280;29493;46.516;6.638;2022-12-07T05:39:48;95789.28;;;22.63;49.75
43838;BME280;29493;46.516;6.638;2022-12-07T05:42:13;95799.94;;;22.65;49.97
43838;BME280;29493;46.516;6.638;2022-12-07T05:44:44;95788.69;;;22.65;49.90
43838;BME280;29493;46.516;6.638;2022-12-07T05:47:10;95799.94;;;22.65;49.98
43838;BME280;29493;46.516;6.638;2022-12-07T05:49:36;95790.75;;;22.64;49.88
43838;BME280;29493;46.516;6.638;2022-12-07T05:52:03;95796.38;;;22.64;49.91
43838;BME280;29493;46.516;6.638;2022-12-07T05:54:29;95794.88;;;22.63;49.98
43838;BME280;29493;46.516;6.638;2022-12-07T05:56:55;95793.56;;;22.64;49.81
43838;BME280;29493;46.516;6.638;2022-12-07T05:59:21;95795.06;;;22.65;49.80
43838;BME280;29493;46.516;6.638;2022-12-07T06:02:09;95791.91;;;22.61;49.95
43838;BME280;29493;46.516;6.638;2022-12-07T06:04:40;95805.19;;;22.60;50.10
43838;BME280;29493;46.516;6.638;2022-12-07T06:07:06;95803.31;;;22.63;49.94
43838;BME280;29493;46.516;6.638;2022-12-07T06:09:33;95813.97;;;22.65;49.97
43838;BME280;29493;46.516;6.638;2022-12-07T06:12:00;95808.53;;;22.67;50.00
43838;BME280;29493;46.516;6.638;2022-12-07T06:14:44;95796.72;;;22.68;49.96
43838;BME280;29493;46.516;6.638;2022-12-07T06:17:11;95795.41;;;22.69;49.82
43838;BME280;29493;46.516;6.638;2022-12-07T06:19:38;95795.25;;;22.67;50.02
43838;BME280;29493;46.516;6.638;2022-12-07T06:22:04;95795.81;;;22.66;49.80
43838;BME280;29493;46.516;6.638;2022-12-07T06:24:32;95793.00;;;22.66;49.86
43838;BME280;29493;46.516;6.638;2022-12-07T06:26:58;95807.03;;;22.66;49.99
43838;BME280;29493;46.516;6.638;2022-12-07T06:29:24;95798.44;;;22.63;49.86
43838;BME280;29493;46.516;6.638;2022-12-07T06:31:50;95796.38;;;22.64;49.91
43838;BME280;29493;46.516;6.638;2022-12-07T06:34:18;95802.00;;;22.64;50.03
43838;BME280;29493;46.516;6.638;2022-12-07T06:36:44;95787.38;;;22.66;49.80
43838;BME280;29493;46.516;6.638;2022-12-07T06:39:11;95787.97;;;22.64;49.84
43838;BME280;29493;46.516;6.638;2022-12-07T06:41:38;95792.09;;;22.63;50.00
43838;BME280;29493;46.516;6.638;2022-12-07T06:44:05;95784.22;;;22.61;49.99
43838;BME280;29493;46.516;6.638;2022-12-07T06:46:31;95787.78;;;22.62;50.16
43838;BME280;29493;46.516;6.638;2022-12-07T06:48:57;95785.72;;;22.62;50.08
43838;BME280;29493;46.516;6.638;2022-12-07T06:51:23;95792.09;;;22.63;50.01
43838;BME280;29493;46.516;6.638;2022-12-07T06:53:49;95792.09;;;22.63;50.06
43838;BME280;29493;46.516;6.638;2022-12-07T06:56:15;95791.44;;;22.47;41.55
43838;BME280;29493;46.516;6.638;2022-12-07T06:58:41;95788.91;;;22.26;45.95
43838;BME280;29493;46.516;6.638;2022-12-07T07:01:14;95794.75;;;22.21;47.88
43838;BME280;29493;46.516;6.638;2022-12-07T07:03:41;95800.53;;;22.23;49.64
43838;BME280;29493;46.516;6.638;2022-12-07T07:06:07;95803.13;;;22.28;50.40
43838;BME280;29493;46.516;6.638;2022-12-07T07:08:34;95795.06;;;22.33;50.68
43838;BME280;29493;46.516;6.638;2022-12-07T07:11:00;95800.47;;;22.38;50.71
43838;BME280;29493;46.516;6.638;2022-12-07T07:13:26;95801.56;;;22.43;51.11
43838;BME280;29493;46.516;6.638;2022-12-07T07:15:52;95804.72;;;22.47;51.37
43838;BME280;29493;46.516;6.638;2022-12-07T07:18:17;95803.00;;;22.51;51.79
43838;BME280;29493;46.516;6.638;2022-12-07T07:20:43;95803.94;;;22.54;51.91
43838;BME280;29493;46.516;6.638;2022-12-07T07:23:09;95804.28;;;22.58;44.82
43838;BME280;29493;46.516;6.638;2022-12-07T07:25:35;95797.81;;;22.40;47.40
43838;BME280;29493;46.516;6.638;2022-12-07T07:28:01;95807.22;;;22.35;50.11
43838;BME280;29493;46.516;6.638;2022-12-07T07:30:27;95808.13;;;22.38;50.91
43838;BME280;29493;46.516;6.638;2022-12-07T07:33:00;95811.28;;;22.42;52.51
43838;BME280;29493;46.516;6.638;2022-12-07T07:35:27;95811.25;;;22.49;53.30
43838;BME280;29493;46.516;6.638;2022-12-07T07:37:54;95804.66;;;22.54;53.42
